• Join FlightAware (Why Join?)
  • Login
  • US Flag 
06:22AM EST


 

Airport Tracker/Info


-or-


 

Live Flight TrackerFlight Track Log ✈ ASQ4345 ✈ 15-Apr-2013 ✈ KIAH - KCRP

Flight Track Log - Related Links

Times and Time Zones

All times are in EDT time to prevent confusion due to time zone crossing. See the ASQ4345 flight status page for this flight to view local times or setup timezone preferences in your user account.

Time Position Orientation Groundspeed Altitude Reporting Facility
EDT Latitude Longitude Course Direction KTS MPH feet Rate Location/Type
10:03AM 29.9614 -95.3411 206° Southwest 143 165 800  Level Houston Center
10:04AM 29.9269 -95.2850 125° Southeast 247 284 2,300 1,626 Climbing Houston Center
10:05AM 29.9014 -95.2397 123° Southeast 245 282 3,700 1,522 Climbing Houston Center
10:05AM 29.8847 -95.2131 126° Southeast 250 288 4,000 290 Climbing Houston Center
10:06AM 29.8606 -95.1725 124° Southeast 250 288 4,000 194 Level Houston Center
10:06AM 29.8353 -95.1564 151° Southeast 240 276 4,200 1,258 Climbing Houston Center
10:07AM 29.6750 -95.5032 209° Southwest  Level FlightAware Approximate
10:07AM 29.7986 -95.1406 159° South 249 287 5,300  Level Houston Center
10:07AM 29.7672 -95.1264 159° South 258 297 6,400 2,129 Climbing Houston Center
10:08AM 29.5998 -95.5501 206° Southwest  Level FlightAware Approximate
10:08AM 29.7283 -95.1219 174° South 262 302 7,500  Level Houston Center
10:09AM 29.6483 -95.1122 174° South 281 323 9,300 1,690 Climbing Houston Center
10:10AM 29.5403 -95.1469 196° South 310 357 11,500 1,355 Climbing Houston Center
10:11AM 29.5117 -95.2006 238° Southwest 319 367 12,100 1,065 Climbing Houston Center
10:12AM 29.4622 -95.2919 238° Southwest 330 380 13,400 1,403 Climbing Houston Center
10:13AM 29.4044 -95.4019 239° Southwest 336 387 15,000 1,355 Climbing Houston Center
10:14AM 29.3553 -95.4936 238° Southwest 336 387 16,200 1,161 Climbing Houston Center
10:15AM 29.3050 -95.5864 238° Southwest 342 394 17,400 1,161 Climbing Houston Center
10:16AM 29.2553 -95.6786 238° Southwest 341 392 18,600 1,161 Climbing Houston Center
10:17AM 29.2053 -95.7711 238° Southwest 341 392 19,800 1,152 Climbing Houston Center
10:18AM 29.1425 -95.8561 230° Southwest 350 403 21,000 1,056 Climbing Houston Center
10:19AM 29.0606 -95.9528 226° Southwest 353 406 22,000 484 Climbing Houston Center
10:20AM 28.9892 -96.0372 226° Southwest 374 430 22,000  Level Houston Center
10:21AM 28.9128 -96.1286 226° Southwest 391 450 22,000  Level Houston Center
10:22AM 28.8344 -96.2219 226° Southwest 402 463 22,000  Level Houston Center
10:23AM 28.7556 -96.3147 226° Southwest 405 466 22,000  Level Houston Center
10:24AM 28.6778 -96.4086 227° Southwest 406 467 22,000  Level Houston Center
10:25AM 28.5825 -96.5186 225° Southwest 406 467 22,000 -677 Level Houston Center
10:26AM 28.5033 -96.6119 226° Southwest 407 468 20,600 -1,535 Descending Houston Center
10:27AM 28.4725 -96.6486 226° Southwest 402 463 19,800 -2,300 Descending Houston Center
10:27AM 28.4261 -96.7031 226° Southwest 400 460 18,300 -3,340 Descending Houston Center
10:28AM 28.3517 -96.7900 226° Southwest 374 430 14,400 -3,148 Descending Houston Center
10:30AM 28.2861 -96.8803 231° Southwest 353 406 11,900 -2,016 Descending Houston Center
10:31AM 28.2472 -96.9667 243° Southwest 315 362 10,300 -1,636 Descending Houston Center
10:32AM 28.2058 -97.0486 240° Southwest 288 331 8,600 -1,686 Descending Houston Center
10:33AM 28.1700 -97.1225 241° Southwest 280 322 6,900 -1,279 Descending Houston Center
10:34AM 28.1319 -97.1992 241° Southwest 272 313 6,000 -406 Descending Houston Center
10:35AM 28.0939 -97.2836 243° Southwest 275 316 6,000 -516 Level Houston Center
10:36AM 28.0564 -97.3544 239° Southwest 264 304 4,900 -1,077 Descending Houston Center
10:37AM 28.0222 -97.4256 241° Southwest 255 293 3,900 -1,091 Descending Houston Center
10:38AM 27.9811 -97.4931 235° Southwest 240 276 2,700 -864 Descending Houston Center
10:39AM 27.9328 -97.5567 229° Southwest 244 281 2,000 -362 Descending Houston Center
10:40AM 27.9022 -97.6008 232° Southwest 241 277 2,000  Level Houston Center
10:40AM 27.8792 -97.6103 200° South 189 217 2,000  Level Houston Center
10:41AM 27.8558 -97.6003 159° South 192 221 2,000 -290 Level Houston Center
10:41AM 27.8381 -97.5825 139° Southeast 148 170 1,700 -689 Descending Houston Center
10:42AM 27.8203 -97.5625 135° Southeast 158 182 1,300 -387 Descending Houston Center
10:42AM 27.8017 -97.5436 138° Southeast 157 181 1,300 -700 Level Houston Center
10:43AM 27.7939 -97.5328 129° Southeast 134 154 600 -1,500 Descending Houston Center